createdAt,value
2024-02-12T00:00:37.993Z,-1.27
2024-02-12T00:03:33.246Z,-1.38
2024-02-12T00:06:06.570Z,-1.27
2024-02-12T00:08:40.057Z,-1.28
2024-02-12T00:11:13.461Z,-1.27
2024-02-12T00:13:46.504Z,-1.30
2024-02-12T00:16:21.129Z,-1.24
2024-02-12T00:18:55.242Z,-1.28
2024-02-12T00:21:30.813Z,-1.27
2024-02-12T00:24:03.773Z,-1.27
2024-02-12T00:26:37.298Z,-1.18
2024-02-12T00:29:09.900Z,-1.16
2024-02-12T00:31:43.988Z,-1.15
2024-02-12T00:34:18.965Z,-1.13
2024-02-12T00:36:52.302Z,-1.19
2024-02-12T00:39:25.456Z,-1.12
2024-02-12T00:41:58.870Z,-1.18
2024-02-12T00:44:35.030Z,-1.12
2024-02-12T00:47:08.583Z,-1.26
2024-02-12T00:49:45.217Z,-1.11
2024-02-12T00:52:19.901Z,-1.20
2024-02-12T00:54:57.734Z,-1.10
2024-02-12T00:57:32.314Z,-1.15
2024-02-12T01:00:14.364Z,-1.11
2024-02-12T01:03:07.597Z,-1.11
2024-02-12T01:05:43.083Z,-1.16
2024-02-12T01:08:16.704Z,-1.15
2024-02-12T01:10:50.240Z,-1.26
2024-02-12T01:13:23.829Z,-1.09
2024-02-12T01:15:57.105Z,-1.07
2024-02-12T01:18:34.777Z,-1.05
2024-02-12T01:21:09.520Z,-1.03
2024-02-12T01:23:43.086Z,-1.05
2024-02-12T01:26:16.753Z,-1.06
2024-02-12T01:28:49.856Z,-1.07
2024-02-12T01:31:23.321Z,-1.13
2024-02-12T01:33:56.152Z,-1.15
2024-02-12T01:36:30.415Z,-1.08
2024-02-12T01:39:03.242Z,-1.08
2024-02-12T01:41:38.718Z,-1.06
2024-02-12T01:44:11.403Z,-1.06
2024-02-12T01:46:50.648Z,-1.26
2024-02-12T01:49:23.576Z,-1.06
2024-02-12T01:51:58.329Z,-1.04
2024-02-12T01:54:31.347Z,-1.07
2024-02-12T01:57:06.835Z,-1.08
2024-02-12T01:59:41.680Z,-1.10
2024-02-12T02:02:16.283Z,-1.09
2024-02-12T02:04:55.390Z,-1.08
2024-02-12T02:07:30.170Z,-1.19
2024-02-12T02:10:03.569Z,-1.09
2024-02-12T02:12:40.653Z,-1.27
2024-02-12T02:15:34.254Z,-1.08
2024-02-12T02:18:07.648Z,-1.09
2024-02-12T02:20:55.590Z,-1.03
2024-02-12T02:23:35.309Z,-1.04
2024-02-12T02:26:10.471Z,-1.00
2024-02-12T02:28:44.438Z,-1.01
2024-02-12T02:31:17.360Z,-1.06
2024-02-12T02:33:50.358Z,-1.01
2024-02-12T02:36:23.729Z,-1.01
2024-02-12T02:38:57.357Z,-0.99
2024-02-12T02:41:32.684Z,-0.97
2024-02-12T02:44:05.592Z,-0.95
2024-02-12T02:46:38.871Z,-0.98
2024-02-12T02:49:13.908Z,-0.98
2024-02-12T02:51:48.120Z,-0.97
2024-02-12T02:54:20.677Z,-0.91
2024-02-12T02:56:55.020Z,-0.89
2024-02-12T02:59:27.998Z,-0.91
2024-02-12T03:02:01.208Z,-0.88
2024-02-12T03:04:35.663Z,-0.92
2024-02-12T03:07:12.139Z,-0.85
2024-02-12T03:09:45.641Z,-0.95
2024-02-12T03:12:19.983Z,-0.81
2024-02-12T03:14:53.501Z,-0.85
2024-02-12T03:17:26.229Z,-0.79
2024-02-12T03:19:59.252Z,-0.77
2024-02-12T03:22:34.838Z,-0.76
2024-02-12T03:25:10.088Z,-1.03
2024-02-12T03:27:46.462Z,-1.04
2024-02-12T03:30:20.309Z,-0.74
2024-02-12T03:32:53.484Z,-0.72
2024-02-12T03:35:26.942Z,-0.71
2024-02-12T03:38:08.681Z,-0.83
2024-02-12T03:40:42.313Z,-0.71
2024-02-12T03:43:17.052Z,-0.73
2024-02-12T03:45:50.620Z,-0.69
2024-02-12T03:48:41.879Z,-0.70
2024-02-12T03:51:34.129Z,-0.70
2024-02-12T03:54:25.416Z,-0.80
2024-02-12T03:57:17.070Z,-0.94
2024-02-12T03:59:55.108Z,-0.63
2024-02-12T04:02:29.427Z,-0.63
2024-02-12T04:05:03.047Z,-0.67
2024-02-12T04:07:40.646Z,-0.69
2024-02-12T04:10:13.836Z,-0.62
2024-02-12T04:12:49.221Z,-0.77
2024-02-12T04:15:24.644Z,-0.67
2024-02-12T04:17:58.219Z,-0.56
2024-02-12T04:20:31.000Z,-0.53
2024-02-12T04:23:04.345Z,-0.51
2024-02-12T04:25:37.460Z,-0.47
2024-02-12T04:28:11.573Z,-0.46
2024-02-12T04:30:46.304Z,-0.44
2024-02-12T04:33:20.234Z,-0.43
2024-02-12T04:35:52.888Z,-0.43
2024-02-12T04:38:25.881Z,-0.51
2024-02-12T04:41:00.658Z,-0.49
2024-02-12T04:43:35.158Z,-0.50
2024-02-12T04:46:12.586Z,-0.41
2024-02-12T04:48:46.335Z,-0.63
2024-02-12T04:51:23.002Z,-0.42
2024-02-12T04:53:56.577Z,-0.42
2024-02-12T04:56:29.556Z,-0.50
2024-02-12T04:59:02.487Z,-0.42
2024-02-12T05:01:37.196Z,-0.40
2024-02-12T05:04:10.411Z,-0.41
2024-02-12T05:06:44.023Z,-0.42
2024-02-12T05:09:17.307Z,-0.39
2024-02-12T05:11:50.561Z,-0.37
2024-02-12T05:14:28.769Z,-0.34
2024-02-12T05:17:05.448Z,-0.44
2024-02-12T05:20:00.719Z,-0.31
2024-02-12T05:22:36.755Z,-0.97
2024-02-12T05:25:10.128Z,-0.26
2024-02-12T05:27:43.266Z,-0.37
2024-02-12T05:30:17.007Z,-0.22
2024-02-12T05:32:51.455Z,-0.32
2024-02-12T05:35:26.587Z,-0.19
2024-02-12T05:38:00.067Z,-0.17
2024-02-12T05:40:32.683Z,-0.24
2024-02-12T05:43:05.603Z,-0.22
2024-02-12T05:45:39.166Z,-0.15
2024-02-12T05:48:13.771Z,-0.11
2024-02-12T05:50:49.848Z,-0.09
2024-02-12T05:53:22.586Z,-0.08
2024-02-12T05:55:57.292Z,-0.12
2024-02-12T05:58:30.189Z,-0.07
2024-02-12T06:01:03.406Z,-0.05
2024-02-12T06:03:39.246Z,-0.02
2024-02-12T06:06:12.802Z,-0.11
2024-02-12T06:08:48.109Z,0.03
2024-02-12T06:11:21.917Z,-0.01
2024-02-12T06:13:55.345Z,0.07
2024-02-12T06:16:28.345Z,0.09
2024-02-12T06:19:03.386Z,-0.13
2024-02-12T06:21:37.132Z,0.14
2024-02-12T06:24:10.571Z,0.17
2024-02-12T06:26:44.166Z,-0.07
2024-02-12T06:29:17.899Z,0.21
2024-02-12T06:31:50.519Z,0.26
2024-02-12T06:34:25.115Z,0.28
2024-02-12T06:36:58.113Z,0.31
2024-02-12T06:39:33.081Z,0.31
2024-02-12T06:42:07.143Z,0.30
2024-02-12T06:44:40.835Z,0.10
2024-02-12T06:47:15.206Z,0.08
2024-02-12T06:49:49.414Z,0.31
2024-02-12T06:52:22.408Z,0.32
2024-02-12T06:54:54.948Z,0.24
2024-02-12T06:57:28.241Z,0.29
2024-02-12T07:00:00.911Z,-0.02
2024-02-12T07:02:36.744Z,0.20
2024-02-12T07:05:13.666Z,0.32
2024-02-12T07:07:49.866Z,0.28
2024-02-12T07:10:24.597Z,0.40
2024-02-12T07:12:57.647Z,0.48
2024-02-12T07:15:31.005Z,0.34
2024-02-12T07:18:04.122Z,0.60
2024-02-12T07:20:42.032Z,0.56
2024-02-12T07:23:15.056Z,0.36
2024-02-12T07:25:48.866Z,0.66
2024-02-12T07:28:23.436Z,0.69
2024-02-12T07:30:56.587Z,0.58
2024-02-12T07:33:29.739Z,0.62
2024-02-12T07:36:05.346Z,0.77
2024-02-12T07:38:39.474Z,0.72
2024-02-12T07:41:15.426Z,0.76
2024-02-12T07:43:48.498Z,0.77
2024-02-12T07:46:22.013Z,0.71
2024-02-12T07:48:55.042Z,0.87
2024-02-12T07:51:29.429Z,0.88
2024-02-12T07:54:02.720Z,0.84
2024-02-12T07:56:36.111Z,0.91
2024-02-12T07:59:09.130Z,0.93
2024-02-12T08:01:42.229Z,0.87
2024-02-12T08:04:15.122Z,0.99
2024-02-12T08:06:49.856Z,1.00
2024-02-12T08:09:22.853Z,0.95
2024-02-12T08:11:56.584Z,0.93
2024-02-12T08:14:30.586Z,1.01
2024-02-12T08:17:06.528Z,1.02
2024-02-12T08:19:41.820Z,1.02
2024-02-12T08:22:16.246Z,1.01
2024-02-12T08:24:51.979Z,1.02
2024-02-12T08:27:25.244Z,1.05
2024-02-12T08:29:57.915Z,1.05
2024-02-12T08:32:31.235Z,0.99
2024-02-12T08:35:07.100Z,1.01
2024-02-12T08:37:52.260Z,0.93
2024-02-12T08:40:28.098Z,1.03
2024-02-12T08:43:01.192Z,1.01
2024-02-12T08:45:33.973Z,1.02
2024-02-12T08:48:24.296Z,1.04
2024-02-12T08:50:57.524Z,1.05
2024-02-12T08:53:34.661Z,1.07
2024-02-12T08:56:08.282Z,1.07
2024-02-12T08:58:41.643Z,0.95
2024-02-12T09:01:19.162Z,1.09
2024-02-12T09:04:12.069Z,1.13
2024-02-12T09:06:45.430Z,1.05
2024-02-12T09:09:20.712Z,1.17
2024-02-12T09:11:53.463Z,0.96
2024-02-12T09:14:26.355Z,1.24
2024-02-12T09:16:59.981Z,1.26
2024-02-12T09:19:33.981Z,1.29
2024-02-12T09:22:07.674Z,1.20
2024-02-12T09:24:42.887Z,1.13
2024-02-12T09:27:16.343Z,1.08
2024-02-12T09:29:49.273Z,1.33
2024-02-12T09:32:22.758Z,1.30
2024-02-12T09:34:57.322Z,1.17
2024-02-12T09:37:33.636Z,1.31
2024-02-12T09:40:10.650Z,1.32
2024-02-12T09:43:01.925Z,1.51
2024-02-12T09:45:41.799Z,1.53
2024-02-12T09:48:15.668Z,1.57
2024-02-12T09:50:51.905Z,1.59
2024-02-12T09:53:26.863Z,1.62
2024-02-12T09:56:02.569Z,1.63
2024-02-12T09:58:38.799Z,1.65
2024-02-12T10:01:13.575Z,1.67
2024-02-12T10:04:06.931Z,1.72
2024-02-12T10:06:59.940Z,1.73
2024-02-12T10:09:52.940Z,1.68
2024-02-12T10:12:52.302Z,1.55
2024-02-12T10:15:46.130Z,1.79
2024-02-12T10:18:40.087Z,1.74
2024-02-12T10:21:44.920Z,1.65
2024-02-12T10:24:40.454Z,1.87
2024-02-12T10:27:33.340Z,1.73
2024-02-12T10:30:27.238Z,1.81
2024-02-12T10:33:21.884Z,1.89
2024-02-12T10:36:18.163Z,1.85
2024-02-12T10:39:14.998Z,1.90
2024-02-12T10:42:10.834Z,1.88
2024-02-12T10:45:05.307Z,1.85
2024-02-12T10:47:59.859Z,1.83
2024-02-12T10:50:56.280Z,1.80
2024-02-12T10:53:50.832Z,1.81
2024-02-12T10:56:45.218Z,1.77
2024-02-12T10:59:19.059Z,1.82
2024-02-12T11:01:52.447Z,1.82
2024-02-12T11:04:28.639Z,1.84
2024-02-12T11:07:10.989Z,1.86
2024-02-12T11:09:43.947Z,1.78
2024-02-12T11:12:23.938Z,1.85
2024-02-12T11:15:00.689Z,1.85
2024-02-12T11:17:38.373Z,1.87
2024-02-12T11:20:19.708Z,1.88
2024-02-12T11:22:56.473Z,1.90
2024-02-12T11:25:36.500Z,1.74
2024-02-12T11:28:16.174Z,1.88
2024-02-12T11:30:50.856Z,1.87
2024-02-12T11:33:28.061Z,1.77
2024-02-12T11:36:08.670Z,1.86
2024-02-12T11:38:50.824Z,1.86
2024-02-12T11:41:25.581Z,1.79
2024-02-12T11:43:59.852Z,1.84
2024-02-12T11:46:32.525Z,1.86
2024-02-12T11:49:08.794Z,1.85
2024-02-12T11:51:43.841Z,1.86
2024-02-12T11:54:17.357Z,1.81
2024-02-12T11:56:52.568Z,1.71
2024-02-12T11:59:25.891Z,1.82
2024-02-12T12:01:58.975Z,1.82
2024-02-12T12:04:35.295Z,1.82
2024-02-12T12:07:17.015Z,1.84
2024-02-12T12:10:02.139Z,1.72
2024-02-12T12:12:44.138Z,1.83
2024-02-12T12:15:21.696Z,1.71
2024-02-12T12:18:12.290Z,1.69
2024-02-12T12:20:46.658Z,1.80
2024-02-12T12:23:20.956Z,1.94
2024-02-12T12:25:56.626Z,1.70
2024-02-12T12:28:29.376Z,1.93
2024-02-12T12:31:02.886Z,2.00
2024-02-12T12:33:37.046Z,2.00
2024-02-12T12:36:12.328Z,1.73
2024-02-12T12:38:47.916Z,1.99
2024-02-12T12:41:21.674Z,1.96
2024-02-12T12:43:55.201Z,2.03
2024-02-12T12:46:27.847Z,1.96
2024-02-12T12:49:10.169Z,2.03
2024-02-12T12:51:44.151Z,2.03
2024-02-12T12:54:18.584Z,1.94
2024-02-12T12:56:52.778Z,2.04
2024-02-12T12:59:25.878Z,2.03
2024-02-12T13:01:58.496Z,2.03
2024-02-12T13:04:31.500Z,1.90
2024-02-12T13:07:05.196Z,1.96
2024-02-12T13:09:40.431Z,1.98
2024-02-12T13:12:13.979Z,2.04
2024-02-12T13:14:47.980Z,2.02
2024-02-12T13:17:20.620Z,2.01
2024-02-12T13:19:54.551Z,2.00
2024-02-12T13:22:28.066Z,1.85
2024-02-12T13:25:07.759Z,1.83
2024-02-12T13:27:42.478Z,1.95
2024-02-12T13:30:16.806Z,1.94
2024-02-12T13:32:51.696Z,1.59
2024-02-12T13:35:25.533Z,1.84
2024-02-12T13:38:00.723Z,1.99
2024-02-12T13:40:35.367Z,2.01
2024-02-12T13:43:12.604Z,2.01
2024-02-12T13:45:46.718Z,2.03
2024-02-12T13:48:28.344Z,2.00
2024-02-12T13:51:02.304Z,2.03
2024-02-12T13:53:37.360Z,2.04
2024-02-12T13:56:11.378Z,1.94
2024-02-12T13:58:44.698Z,2.00
2024-02-12T14:01:34.300Z,2.06
2024-02-12T14:04:13.531Z,2.05
2024-02-12T14:06:48.143Z,2.06
2024-02-12T14:09:26.370Z,2.07
2024-02-12T14:12:01.084Z,2.06
2024-02-12T14:14:33.637Z,2.05
2024-02-12T14:17:08.156Z,2.05
2024-02-12T14:19:45.734Z,2.06
2024-02-12T14:22:18.915Z,1.90
2024-02-12T14:24:52.127Z,2.01
2024-02-12T14:27:26.465Z,2.04
2024-02-12T14:29:59.904Z,1.83
2024-02-12T14:32:40.404Z,2.16
2024-02-12T14:35:20.566Z,2.16
2024-02-12T14:37:57.438Z,2.10
2024-02-12T14:40:30.980Z,2.03
2024-02-12T14:43:05.335Z,2.03
2024-02-12T14:45:39.696Z,2.12
2024-02-12T14:48:33.840Z,2.19
2024-02-12T14:51:07.301Z,2.18
2024-02-12T14:53:40.320Z,2.17
2024-02-12T14:56:13.804Z,2.07
2024-02-12T14:58:50.736Z,2.19
2024-02-12T15:01:26.905Z,2.12
2024-02-12T15:04:00.547Z,2.01
2024-02-12T15:06:34.241Z,2.21
2024-02-12T15:09:09.756Z,2.23
2024-02-12T15:11:43.662Z,2.17
2024-02-12T15:14:21.059Z,2.25
2024-02-12T15:16:54.574Z,1.98
2024-02-12T15:19:27.548Z,2.20
2024-02-12T15:22:06.507Z,2.23
2024-02-12T15:24:39.205Z,2.28
2024-02-12T15:27:12.510Z,2.27
2024-02-12T15:29:49.739Z,2.24
2024-02-12T15:32:24.841Z,2.23
2024-02-12T15:35:07.334Z,2.17
2024-02-12T15:37:40.543Z,2.26
2024-02-12T15:40:18.051Z,2.22
2024-02-12T15:42:54.189Z,2.27
2024-02-12T15:45:30.626Z,2.22
2024-02-12T15:48:05.427Z,2.19
2024-02-12T15:50:41.007Z,2.11
2024-02-12T15:53:14.032Z,2.30
2024-02-12T15:55:47.081Z,2.24
2024-02-12T15:58:19.975Z,2.31
2024-02-12T16:00:54.451Z,2.30
2024-02-12T16:03:27.603Z,2.29
2024-02-12T16:06:11.122Z,2.30
2024-02-12T16:08:57.679Z,2.06
2024-02-12T16:11:31.344Z,2.27
2024-02-12T16:14:04.659Z,2.25
2024-02-12T16:16:41.799Z,2.26
2024-02-12T16:19:14.905Z,2.26
2024-02-12T16:21:48.492Z,2.26
2024-02-12T16:24:21.333Z,1.94
2024-02-12T16:26:54.697Z,2.27
2024-02-12T16:29:27.679Z,2.27
2024-02-12T16:32:02.457Z,2.27
2024-02-12T16:34:36.526Z,1.98
2024-02-12T16:37:09.521Z,2.26
2024-02-12T16:39:42.548Z,2.10
2024-02-12T16:42:15.706Z,2.05
2024-02-12T16:44:48.853Z,2.14
2024-02-12T16:47:23.947Z,2.30
2024-02-12T16:49:57.302Z,2.31
2024-02-12T16:52:30.918Z,2.22
2024-02-12T16:55:07.303Z,2.33
2024-02-12T16:57:42.697Z,2.34
2024-02-12T17:00:19.704Z,2.32
2024-02-12T17:03:10.518Z,2.37
2024-02-12T17:05:43.893Z,2.24
2024-02-12T17:08:18.917Z,2.25
2024-02-12T17:10:52.778Z,1.94
2024-02-12T17:13:26.056Z,2.20
2024-02-12T17:15:59.685Z,2.28
2024-02-12T17:18:33.928Z,2.07
2024-02-12T17:21:07.168Z,2.27
2024-02-12T17:23:40.691Z,2.28
2024-02-12T17:26:13.650Z,2.14
2024-02-12T17:28:46.449Z,2.26
2024-02-12T17:31:19.387Z,1.69
2024-02-12T17:34:02.403Z,1.82
2024-02-12T17:36:35.872Z,2.21
2024-02-12T17:39:12.463Z,2.29
2024-02-12T17:41:45.847Z,2.29
2024-02-12T17:44:20.136Z,2.31
2024-02-12T17:46:56.767Z,2.24
2024-02-12T17:49:31.413Z,2.32
2024-02-12T17:52:07.075Z,2.27
2024-02-12T17:54:40.261Z,2.32
2024-02-12T17:57:14.345Z,2.31
2024-02-12T17:59:48.524Z,2.12
2024-02-12T18:02:21.547Z,2.20
2024-02-12T18:04:59.433Z,2.27
2024-02-12T18:07:33.478Z,2.25
2024-02-12T18:10:07.156Z,2.28
2024-02-12T18:12:46.367Z,2.29
2024-02-12T18:15:20.855Z,2.28
2024-02-12T18:17:54.089Z,2.28
2024-02-12T18:20:28.384Z,2.28
2024-02-12T18:23:01.791Z,2.11
2024-02-12T18:25:35.138Z,2.26
2024-02-12T18:28:12.656Z,2.27
2024-02-12T18:30:45.277Z,2.08
2024-02-12T18:33:18.458Z,2.28
2024-02-12T18:35:53.820Z,2.27
2024-02-12T18:38:27.314Z,2.23
2024-02-12T18:41:00.101Z,2.28
2024-02-12T18:43:33.876Z,2.29
2024-02-12T18:46:07.728Z,2.31
2024-02-12T18:48:41.591Z,2.23
2024-02-12T18:51:16.172Z,2.22
2024-02-12T18:53:51.344Z,2.32
2024-02-12T18:56:26.822Z,2.32
2024-02-12T18:59:01.895Z,2.31
2024-02-12T19:01:36.203Z,2.15
2024-02-12T19:04:09.682Z,2.33
2024-02-12T19:06:46.274Z,2.34
2024-02-12T19:09:20.109Z,2.34
2024-02-12T19:11:53.400Z,2.29
2024-02-12T19:14:26.580Z,2.27
2024-02-12T19:16:59.571Z,2.38
2024-02-12T19:19:36.363Z,2.40
2024-02-12T19:22:10.645Z,2.41
2024-02-12T19:24:47.156Z,2.43
2024-02-12T19:27:20.081Z,2.43
2024-02-12T19:29:55.960Z,2.44
2024-02-12T19:32:29.731Z,2.37
2024-02-12T19:35:02.974Z,2.44
2024-02-12T19:37:39.890Z,2.45
2024-02-12T19:40:16.393Z,2.30
2024-02-12T19:42:52.938Z,2.44
2024-02-12T19:45:27.099Z,2.43
2024-02-12T19:48:00.960Z,2.44
2024-02-12T19:50:35.494Z,2.44
2024-02-12T19:53:10.649Z,2.45
2024-02-12T19:55:44.243Z,1.92
2024-02-12T19:58:17.401Z,2.39
2024-02-12T20:00:49.993Z,2.52
2024-02-12T20:03:23.376Z,2.46
2024-02-12T20:05:56.186Z,2.53
2024-02-12T20:08:31.121Z,2.39
2024-02-12T20:11:05.235Z,2.53
2024-02-12T20:13:40.033Z,2.47
2024-02-12T20:16:13.265Z,2.54
2024-02-12T20:18:45.996Z,2.17
2024-02-12T20:21:19.122Z,2.51
2024-02-12T20:23:59.218Z,2.55
2024-02-12T20:26:32.866Z,2.54
2024-02-12T20:29:18.724Z,2.53
2024-02-12T20:31:51.781Z,2.52
2024-02-12T20:34:30.258Z,2.51
2024-02-12T20:37:03.788Z,2.44
2024-02-12T20:39:38.176Z,2.48
2024-02-12T20:42:11.397Z,2.47
2024-02-12T20:44:44.693Z,2.47
2024-02-12T20:47:21.615Z,2.47
2024-02-12T20:49:55.889Z,2.47
2024-02-12T20:52:29.141Z,2.47
2024-02-12T20:55:05.615Z,2.46
2024-02-12T20:57:43.119Z,2.42
2024-02-12T21:00:16.850Z,2.46
2024-02-12T21:03:09.576Z,2.44
2024-02-12T21:05:42.705Z,2.43
2024-02-12T21:08:38.934Z,2.26
2024-02-12T21:11:13.837Z,2.32
2024-02-12T21:13:47.093Z,2.41
2024-02-12T21:16:19.582Z,2.41
2024-02-12T21:18:53.155Z,2.35
2024-02-12T21:21:26.299Z,2.37
2024-02-12T21:24:00.107Z,2.46
2024-02-12T21:26:34.524Z,2.45
2024-02-12T21:29:08.215Z,2.47
2024-02-12T21:31:41.652Z,2.40
2024-02-12T21:34:18.372Z,2.48
2024-02-12T21:36:52.278Z,2.50
2024-02-12T21:39:35.501Z,2.51
2024-02-12T21:42:24.887Z,2.51
2024-02-12T21:45:00.254Z,2.51
2024-02-12T21:47:33.681Z,2.47
2024-02-12T21:50:12.543Z,2.52
2024-02-12T21:53:05.107Z,2.47
2024-02-12T21:55:38.009Z,2.52
2024-02-12T21:58:12.600Z,2.53
2024-02-12T22:00:47.824Z,2.53
2024-02-12T22:03:21.292Z,2.40
2024-02-12T22:05:55.263Z,2.47
2024-02-12T22:08:29.044Z,2.54
2024-02-12T22:11:01.609Z,2.55
2024-02-12T22:13:36.445Z,2.50
2024-02-12T22:16:09.702Z,2.57
2024-02-12T22:18:43.117Z,2.46
2024-02-12T22:21:16.444Z,2.55
2024-02-12T22:23:49.269Z,2.56
2024-02-12T22:26:24.177Z,2.56
2024-02-12T22:28:59.127Z,2.56
2024-02-12T22:31:31.929Z,2.54
2024-02-12T22:34:05.213Z,2.42
2024-02-12T22:36:38.383Z,2.50
2024-02-12T22:39:12.351Z,2.48
2024-02-12T22:41:45.577Z,2.46
2024-02-12T22:44:20.046Z,2.46
2024-02-12T22:46:56.933Z,2.43
2024-02-12T22:49:29.819Z,2.36
2024-02-12T22:52:02.845Z,2.48
2024-02-12T22:54:36.847Z,2.45
2024-02-12T22:57:10.295Z,2.50
2024-02-12T22:59:45.157Z,2.46
2024-02-12T23:02:18.675Z,2.45
2024-02-12T23:04:51.695Z,2.50
2024-02-12T23:07:26.778Z,2.51
2024-02-12T23:09:59.433Z,2.50
2024-02-12T23:12:32.839Z,2.49
2024-02-12T23:15:08.165Z,2.49
2024-02-12T23:17:51.826Z,2.43
2024-02-12T23:20:25.687Z,2.42
2024-02-12T23:22:58.348Z,2.47
2024-02-12T23:25:32.936Z,2.47
2024-02-12T23:28:06.768Z,2.46
2024-02-12T23:30:42.042Z,2.47
2024-02-12T23:33:14.768Z,2.47
2024-02-12T23:35:48.724Z,2.45
2024-02-12T23:38:23.334Z,2.44
2024-02-12T23:40:57.023Z,2.42
2024-02-12T23:43:29.606Z,2.42
2024-02-12T23:46:04.352Z,2.35
2024-02-12T23:48:55.179Z,2.41
2024-02-12T23:51:28.493Z,2.30
2024-02-12T23:54:01.305Z,2.39
2024-02-12T23:56:34.466Z,2.22
2024-02-12T23:59:08.177Z,2.26
